Time;durP1;ratioP1;P1;durP2;ratioP2;P2;SDS_P1;SDS_P2;PMS_P1;PMS_P2;Temp;Humidity;BMP_temperature;BMP_pressure;BME280_temperature;BME280_humidity;BME280_pressure;Samples;Min_cycle;Max_cycle;Signal;HPM_P1;HPM_P2
2022/03/15 00:00:42;;;;;;;19.30;4.47;;;;;;;;;;5068335;28;20187;-61
2022/03/15 00:03:08;;;;;;;9.40;4.70;;;;;;;;;;5067462;28;20400;-62
2022/03/15 00:05:35;;;;;;;12.23;4.57;;;;;;;;;;5078914;28;20066;-62
2022/03/15 00:08:01;;;;;;;14.82;5.00;;;;;;;;;;5070039;28;20507;-62
2022/03/15 00:10:28;;;;;;;44.95;6.95;;;;;;;;;;5074210;28;20080;-62
2022/03/15 00:12:56;;;;;;;13.00;5.97;;;;;;;;;;5074055;28;20040;-61
2022/03/15 00:15:24;;;;;;;17.80;7.28;;;;;;;;;;5073461;28;20053;-61
2022/03/15 00:17:50;;;;;;;20.55;6.93;;;;;;;;;;5092368;28;20045;-62
2022/03/15 00:20:19;;;;;;;21.67;7.35;;;;;;;;;;5073927;28;20053;-62
2022/03/15 00:22:47;;;;;;;21.77;8.00;;;;;;;;;;5075829;28;20407;-61
2022/03/15 00:25:16;;;;;;;23.15;7.50;;;;;;;;;;5073319;28;20040;-62
2022/03/15 00:27:44;;;;;;;16.63;7.00;;;;;;;;;;5076229;28;20376;-62
2022/03/15 00:30:10;;;;;;;17.40;7.38;;;;;;;;;;5072793;28;20055;-61
2022/03/15 00:32:36;;;;;;;42.55;7.00;;;;;;;;;;5073724;28;20044;-62
2022/03/15 00:35:07;;;;;;;21.35;5.20;;;;;;;;;;5073984;28;20093;-62
2022/03/15 00:37:35;;;;;;;15.32;4.70;;;;;;;;;;5070492;28;20123;-62
2022/03/15 00:40:01;;;;;;;9.50;5.35;;;;;;;;;;5073845;28;20051;-62
2022/03/15 00:42:27;;;;;;;57.75;7.00;;;;;;;;;;5075220;28;20082;-62
2022/03/15 00:44:53;;;;;;;178.27;9.88;;;;;;;;;;5071747;28;20476;-62
2022/03/15 00:47:19;;;;;;;47.15;5.35;;;;;;;;;;5075788;28;20040;-62
2022/03/15 00:49:45;;;;;;;132.80;7.60;;;;;;;;;;5077202;28;20044;-62
2022/03/15 00:52:11;;;;;;;181.45;9.48;;;;;;;;;;5072412;28;20115;-62
2022/03/15 00:54:38;;;;;;;128.55;9.05;;;;;;;;;;5056200;28;20067;-61
2022/03/15 00:57:04;;;;;;;90.18;7.63;;;;;;;;;;5073608;28;20044;-62
2022/03/15 00:59:30;;;;;;;95.93;8.23;;;;;;;;;;5072816;28;20103;-62
2022/03/15 01:01:56;;;;;;;25.90;6.18;;;;;;;;;;5081646;28;20086;-62
2022/03/15 01:04:23;;;;;;;96.03;6.63;;;;;;;;;;5065697;28;20048;-62
2022/03/15 01:06:49;;;;;;;212.15;12.55;;;;;;;;;;5066665;28;20075;-62
2022/03/15 01:09:15;;;;;;;107.82;12.13;;;;;;;;;;5078770;28;20035;-62
2022/03/15 01:11:41;;;;;;;38.15;10.52;;;;;;;;;;5075274;28;20495;-62
2022/03/15 01:14:07;;;;;;;38.72;9.68;;;;;;;;;;5073027;28;20127;-62
2022/03/15 01:16:34;;;;;;;23.52;9.80;;;;;;;;;;5071990;28;20131;-62
2022/03/15 01:19:00;;;;;;;28.42;11.02;;;;;;;;;;5072267;28;20044;-62
2022/03/15 01:21:26;;;;;;;26.15;10.43;;;;;;;;;;5076800;28;20067;-62
2022/03/15 01:23:53;;;;;;;47.50;10.98;;;;;;;;;;5076461;28;20036;-62
2022/03/15 01:26:19;;;;;;;61.55;10.68;;;;;;;;;;5075741;28;20166;-62
2022/03/15 01:28:46;;;;;;;34.65;8.18;;;;;;;;;;5071375;28;20048;-62
2022/03/15 01:31:12;;;;;;;29.65;9.15;;;;;;;;;;5077312;28;20499;-62
2022/03/15 01:33:38;;;;;;;51.33;11.43;;;;;;;;;;5071276;28;20056;-61
2022/03/15 01:36:05;;;;;;;26.88;10.27;;;;;;;;;;5073423;28;20033;-62
2022/03/15 01:38:34;;;;;;;25.02;10.95;;;;;;;;;;5072710;28;20044;-62
2022/03/15 01:41:00;;;;;;;22.38;10.85;;;;;;;;;;5071792;28;20131;-62
2022/03/15 01:43:26;;;;;;;22.27;10.13;;;;;;;;;;5069787;28;20037;-62
2022/03/15 01:45:53;;;;;;;20.23;10.25;;;;;;;;;;5072341;28;20125;-62
2022/03/15 01:48:20;;;;;;;26.52;10.65;;;;;;;;;;5071576;28;20131;-62
2022/03/15 01:50:47;;;;;;;28.48;11.32;;;;;;;;;;5072187;28;20131;-62
2022/03/15 01:53:15;;;;;;;26.27;12.00;;;;;;;;;;5072318;28;20086;-62
2022/03/15 01:55:41;;;;;;;26.92;12.88;;;;;;;;;;5087647;28;20138;-62
2022/03/15 01:58:08;;;;;;;34.33;13.07;;;;;;;;;;5091965;28;20418;-62
2022/03/15 02:00:34;;;;;;;27.67;12.63;;;;;;;;;;5091370;28;20113;-62
2022/03/15 02:03:02;;;;;;;32.70;12.50;;;;;;;;;;5092304;28;20043;-62
2022/03/15 02:05:28;;;;;;;28.52;12.48;;;;;;;;;;5072394;28;20087;-62
2022/03/15 02:07:54;;;;;;;29.15;12.10;;;;;;;;;;5091872;28;20426;-62
2022/03/15 02:10:20;;;;;;;23.77;12.80;;;;;;;;;;5087183;28;20139;-61
2022/03/15 02:12:46;;;;;;;27.00;11.18;;;;;;;;;;5073694;28;20047;-62
2022/03/15 02:15:13;;;;;;;28.02;12.23;;;;;;;;;;5091881;28;20046;-62
2022/03/15 02:17:39;;;;;;;33.33;15.45;;;;;;;;;;5091771;28;20119;-62
2022/03/15 02:20:07;;;;;;;35.85;13.63;;;;;;;;;;5092085;28;20063;-62
2022/03/15 02:22:34;;;;;;;27.77;11.63;;;;;;;;;;5094015;28;20123;-62
2022/03/15 02:25:00;;;;;;;35.13;13.18;;;;;;;;;;5092445;28;20036;-61
2022/03/15 02:27:26;;;;;;;28.30;13.60;;;;;;;;;;5093320;28;20036;-62
2022/03/15 02:29:52;;;;;;;31.85;13.35;;;;;;;;;;5091855;28;20088;-62
2022/03/15 02:32:19;;;;;;;34.97;14.77;;;;;;;;;;5075567;28;20194;-62
2022/03/15 02:34:45;;;;;;;32.45;13.15;;;;;;;;;;5077112;28;20048;-62
2022/03/15 02:37:11;;;;;;;33.03;13.40;;;;;;;;;;5093554;28;20169;-62
2022/03/15 02:39:37;;;;;;;34.50;15.13;;;;;;;;;;5091598;28;20232;-62
2022/03/15 02:42:03;;;;;;;31.27;14.10;;;;;;;;;;5073303;28;20047;-62
2022/03/15 02:44:30;;;;;;;33.08;14.85;;;;;;;;;;5090681;28;20048;-62
2022/03/15 02:46:56;;;;;;;26.48;12.70;;;;;;;;;;5091609;28;20075;-62
2022/03/15 02:49:22;;;;;;;33.13;13.60;;;;;;;;;;5089565;28;20036;-62
2022/03/15 02:51:48;;;;;;;31.92;13.80;;;;;;;;;;5089968;28;20044;-62
2022/03/15 02:54:14;;;;;;;39.47;16.42;;;;;;;;;;5069166;28;20387;-62
2022/03/15 02:56:43;;;;;;;35.67;13.35;;;;;;;;;;5052767;28;20058;-62
2022/03/15 02:59:13;;;;;;;42.15;15.20;;;;;;;;;;5078303;28;20056;-62
2022/03/15 03:01:39;;;;;;;40.17;15.40;;;;;;;;;;5071230;28;20144;-62
2022/03/15 03:04:06;;;;;;;30.45;15.75;;;;;;;;;;5070996;28;20070;-62
2022/03/15 03:06:32;;;;;;;36.60;14.98;;;;;;;;;;5073093;28;20399;-62
2022/03/15 03:08:59;;;;;;;31.05;16.15;;;;;;;;;;5071655;28;20080;-62
2022/03/15 03:11:25;;;;;;;39.70;16.00;;;;;;;;;;5069898;28;20094;-62
2022/03/15 03:13:54;;;;;;;33.75;16.60;;;;;;;;;;5061383;28;20040;-62
2022/03/15 03:16:20;;;;;;;33.03;16.05;;;;;;;;;;5069249;28;20094;-62
2022/03/15 03:18:47;;;;;;;31.13;17.02;;;;;;;;;;5059654;28;20049;-62
2022/03/15 03:21:13;;;;;;;33.33;16.02;;;;;;;;;;5063083;28;20044;-62
2022/03/15 03:23:39;;;;;;;34.28;16.02;;;;;;;;;;5070246;28;20491;-62
2022/03/15 03:26:06;;;;;;;34.35;15.95;;;;;;;;;;5070743;28;20040;-62
2022/03/15 03:28:36;;;;;;;41.03;16.85;;;;;;;;;;5071501;28;20097;-62
2022/03/15 03:31:04;;;;;;;31.50;16.13;;;;;;;;;;5067307;28;20407;-62
2022/03/15 03:33:30;;;;;;;31.52;15.32;;;;;;;;;;5068709;28;20053;-62
2022/03/15 03:35:57;;;;;;;38.47;16.65;;;;;;;;;;5073986;28;20115;-62
2022/03/15 03:38:23;;;;;;;33.70;15.25;;;;;;;;;;5070774;28;20068;-62
2022/03/15 03:40:50;;;;;;;35.33;15.23;;;;;;;;;;5073185;28;20400;-62
2022/03/15 03:43:16;;;;;;;36.92;15.52;;;;;;;;;;5076957;28;20059;-62
2022/03/15 03:45:43;;;;;;;38.80;15.85;;;;;;;;;;5081168;28;20127;-62
2022/03/15 03:48:09;;;;;;;29.83;15.25;;;;;;;;;;5076685;28;20040;-62
2022/03/15 03:50:35;;;;;;;35.75;15.43;;;;;;;;;;5078343;28;20446;-62
2022/03/15 03:53:03;;;;;;;23.63;14.45;;;;;;;;;;5071906;28;20132;-63
2022/03/15 03:55:29;;;;;;;35.50;14.98;;;;;;;;;;5068722;28;20049;-62
2022/03/15 03:57:55;;;;;;;29.80;14.73;;;;;;;;;;5071317;28;20124;-62
2022/03/15 04:00:22;;;;;;;32.90;14.10;;;;;;;;;;5068758;28;20403;-62
2022/03/15 04:02:48;;;;;;;27.75;13.73;;;;;;;;;;5073440;28;20055;-62
2022/03/15 04:05:15;;;;;;;35.80;15.15;;;;;;;;;;5068997;28;20379;-62
2022/03/15 04:07:41;;;;;;;35.70;16.00;;;;;;;;;;5073274;28;20033;-62
2022/03/15 04:10:08;;;;;;;26.60;14.93;;;;;;;;;;5072330;28;20148;-62
2022/03/15 04:12:35;;;;;;;41.50;15.55;;;;;;;;;;5073515;28;20112;-62
2022/03/15 04:15:02;;;;;;;30.95;15.18;;;;;;;;;;5073412;28;20431;-62
2022/03/15 04:17:29;;;;;;;34.95;14.10;;;;;;;;;;5070619;28;20093;-62
2022/03/15 04:19:55;;;;;;;27.35;12.90;;;;;;;;;;5071767;28;20045;-62
2022/03/15 04:22:21;;;;;;;31.95;14.68;;;;;;;;;;5071166;28;20044;-61
2022/03/15 04:24:47;;;;;;;38.67;15.57;;;;;;;;;;5063924;28;20155;-62
2022/03/15 04:27:15;;;;;;;31.67;14.85;;;;;;;;;;5074827;28;20059;-62
2022/03/15 04:29:41;;;;;;;32.63;15.35;;;;;;;;;;5071016;28;20474;-62
2022/03/15 04:32:08;;;;;;;34.30;16.02;;;;;;;;;;5084087;28;20067;-63
2022/03/15 04:34:34;;;;;;;32.00;14.27;;;;;;;;;;5077642;28;20048;-63
2022/03/15 04:37:00;;;;;;;30.63;14.25;;;;;;;;;;5076684;28;20048;-62
2022/03/15 04:39:26;;;;;;;34.47;16.15;;;;;;;;;;5072700;28;20127;-63
2022/03/15 04:41:52;;;;;;;31.05;15.88;;;;;;;;;;5076441;28;21300;-62
2022/03/15 04:44:19;;;;;;;30.38;14.82;;;;;;;;;;5073146;28;20140;-62
2022/03/15 04:46:45;;;;;;;32.90;15.55;;;;;;;;;;5072717;28;20052;-62
2022/03/15 04:49:11;;;;;;;36.28;15.88;;;;;;;;;;5072828;28;20045;-62
2022/03/15 04:51:38;;;;;;;38.83;15.70;;;;;;;;;;5072205;28;20048;-62
2022/03/15 04:54:04;;;;;;;37.15;17.08;;;;;;;;;;5080033;28;20051;-62
2022/03/15 04:56:30;;;;;;;31.15;15.80;;;;;;;;;;5093182;28;20068;-63
2022/03/15 04:58:56;;;;;;;44.70;15.75;;;;;;;;;;5075818;28;20059;-62
2022/03/15 05:01:22;;;;;;;38.55;16.35;;;;;;;;;;5095476;28;20088;-62
2022/03/15 05:03:49;;;;;;;34.25;15.80;;;;;;;;;;5094978;28;20036;-62
2022/03/15 05:06:15;;;;;;;38.10;17.40;;;;;;;;;;5099350;28;20048;-62
2022/03/15 05:08:41;;;;;;;41.53;18.95;;;;;;;;;;5098517;28;20036;-62
2022/03/15 05:11:08;;;;;;;37.25;17.45;;;;;;;;;;5091833;28;20040;-62
2022/03/15 05:13:36;;;;;;;33.20;17.38;;;;;;;;;;5073255;28;20384;-62
2022/03/15 05:16:03;;;;;;;40.47;20.15;;;;;;;;;;5093678;28;20118;-62
2022/03/15 05:18:29;;;;;;;41.25;17.35;;;;;;;;;;5092549;28;20479;-62
2022/03/15 05:20:56;;;;;;;36.15;18.70;;;;;;;;;;5074801;28;20146;-62
2022/03/15 05:23:22;;;;;;;39.13;20.38;;;;;;;;;;5076344;28;20044;-62
2022/03/15 05:25:48;;;;;;;36.53;18.70;;;;;;;;;;5091936;28;20039;-62
2022/03/15 05:28:14;;;;;;;36.97;18.50;;;;;;;;;;5103893;28;20400;-62
2022/03/15 05:30:40;;;;;;;39.53;19.08;;;;;;;;;;5090075;28;20173;-62
2022/03/15 05:33:06;;;;;;;40.08;19.48;;;;;;;;;;5065636;28;20051;-63
2022/03/15 05:35:32;;;;;;;31.88;17.70;;;;;;;;;;5070301;28;20508;-63
2022/03/15 05:37:59;;;;;;;38.65;20.05;;;;;;;;;;5088221;28;20032;-62
2022/03/15 05:40:25;;;;;;;42.95;20.90;;;;;;;;;;5082889;28;20039;-62
2022/03/15 05:42:51;;;;;;;37.90;19.90;;;;;;;;;;5092847;28;20036;-62
2022/03/15 05:45:17;;;;;;;38.53;19.15;;;;;;;;;;5074538;28;20479;-62
2022/03/15 05:47:43;;;;;;;43.15;20.23;;;;;;;;;;5090600;28;20101;-62
2022/03/15 05:50:10;;;;;;;40.20;19.88;;;;;;;;;;5074577;28;20571;-62
2022/03/15 05:52:36;;;;;;;39.22;20.45;;;;;;;;;;5092487;28;20071;-62
2022/03/15 05:55:02;;;;;;;38.20;18.45;;;;;;;;;;5092640;28;20043;-63
2022/03/15 05:57:28;;;;;;;33.42;17.90;;;;;;;;;;5089718;28;20048;-62
2022/03/15 05:59:54;;;;;;;39.65;17.85;;;;;;;;;;5073883;28;20051;-62
2022/03/15 06:02:21;;;;;;;38.08;18.88;;;;;;;;;;5091767;28;20117;-63
2022/03/15 06:04:47;;;;;;;36.08;18.02;;;;;;;;;;5097613;28;20432;-63
2022/03/15 06:07:13;;;;;;;38.92;19.10;;;;;;;;;;5092163;28;20441;-63
2022/03/15 06:09:40;;;;;;;39.65;18.98;;;;;;;;;;5076152;28;20406;-63
2022/03/15 06:12:07;;;;;;;36.50;18.70;;;;;;;;;;5071395;28;20566;-63
2022/03/15 06:14:33;;;;;;;32.55;18.13;;;;;;;;;;5090265;28;20068;-63
2022/03/15 06:16:59;;;;;;;36.00;18.55;;;;;;;;;;5071863;28;20101;-63
2022/03/15 06:19:25;;;;;;;35.80;20.35;;;;;;;;;;5092256;28;20227;-63
2022/03/15 06:21:52;;;;;;;43.20;18.63;;;;;;;;;;5096043;28;20189;-63
2022/03/15 06:24:18;;;;;;;33.10;19.33;;;;;;;;;;5070928;28;20490;-63
2022/03/15 06:26:46;;;;;;;39.55;20.02;;;;;;;;;;5089611;28;20399;-62
2022/03/15 06:29:12;;;;;;;39.60;21.42;;;;;;;;;;5090744;28;20051;-62
2022/03/15 06:31:38;;;;;;;39.80;20.60;;;;;;;;;;5084869;28;20483;-63
2022/03/15 06:34:04;;;;;;;41.80;19.85;;;;;;;;;;5058434;28;20132;-63
2022/03/15 06:36:31;;;;;;;47.58;21.30;;;;;;;;;;5088159;28;20047;-63
2022/03/15 06:38:57;;;;;;;41.10;21.27;;;;;;;;;;5085915;28;20036;-63
2022/03/15 06:41:23;;;;;;;50.08;20.75;;;;;;;;;;5086720;28;20044;-63
2022/03/15 06:43:49;;;;;;;43.28;20.25;;;;;;;;;;5062606;28;20040;-63
2022/03/15 06:46:16;;;;;;;47.03;20.65;;;;;;;;;;5100748;28;20040;-63
2022/03/15 06:48:42;;;;;;;37.72;18.95;;;;;;;;;;5069524;28;20040;-63
2022/03/15 06:51:09;;;;;;;36.78;20.48;;;;;;;;;;5069345;28;20075;-63
2022/03/15 06:53:35;;;;;;;40.30;21.73;;;;;;;;;;5079336;28;20041;-64
2022/03/15 06:56:01;;;;;;;41.13;20.30;;;;;;;;;;5103168;28;20051;-63
2022/03/15 06:58:27;;;;;;;44.38;22.17;;;;;;;;;;5082821;28;20036;-63
2022/03/15 07:00:55;;;;;;;43.05;20.67;;;;;;;;;;5075746;28;20043;-63
2022/03/15 07:03:21;;;;;;;37.70;20.33;;;;;;;;;;5068026;28;20050;-63
2022/03/15 07:05:48;;;;;;;43.53;20.50;;;;;;;;;;5076692;28;20044;-63
2022/03/15 07:08:14;;;;;;;39.47;20.13;;;;;;;;;;5088205;28;20065;-63
2022/03/15 07:10:40;;;;;;;39.70;20.17;;;;;;;;;;5097502;28;20041;-62
2022/03/15 07:13:06;;;;;;;44.78;20.77;;;;;;;;;;5069826;28;20040;-63
2022/03/15 07:15:33;;;;;;;39.03;22.08;;;;;;;;;;5073273;28;20043;-63
2022/03/15 07:17:59;;;;;;;38.97;20.20;;;;;;;;;;5084062;28;20043;-63
2022/03/15 07:20:25;;;;;;;39.22;20.83;;;;;;;;;;5096346;28;20131;-63
2022/03/15 07:22:52;;;;;;;37.70;21.08;;;;;;;;;;5081874;28;20060;-63
2022/03/15 07:25:20;;;;;;;40.13;20.88;;;;;;;;;;5080431;28;20036;-63
2022/03/15 07:27:46;;;;;;;33.72;20.17;;;;;;;;;;5088443;28;20032;-63
2022/03/15 07:30:13;;;;;;;44.78;21.08;;;;;;;;;;5082432;28;20076;-63
2022/03/15 07:32:39;;;;;;;40.15;20.92;;;;;;;;;;5080495;28;20040;-63
2022/03/15 07:35:06;;;;;;;45.88;20.42;;;;;;;;;;5081828;28;20040;-63
2022/03/15 07:37:32;;;;;;;40.92;20.85;;;;;;;;;;5083349;28;20048;-63
2022/03/15 07:39:58;;;;;;;48.55;22.27;;;;;;;;;;5068549;28;20044;-63
2022/03/15 07:42:25;;;;;;;35.70;20.98;;;;;;;;;;5085388;28;20398;-63
2022/03/15 07:44:51;;;;;;;40.72;20.45;;;;;;;;;;5083402;28;20052;-63
2022/03/15 07:47:17;;;;;;;43.35;19.23;;;;;;;;;;5061032;28;20451;-63
2022/03/15 07:49:44;;;;;;;37.25;18.80;;;;;;;;;;5079712;28;20075;-63
2022/03/15 07:52:11;;;;;;;34.97;17.30;;;;;;;;;;5063800;28;20043;-63
2022/03/15 07:54:38;;;;;;;35.83;17.80;;;;;;;;;;5087357;28;20083;-63
2022/03/15 07:57:04;;;;;;;38.05;17.70;;;;;;;;;;5052912;28;20052;-63
2022/03/15 07:59:31;;;;;;;33.53;18.38;;;;;;;;;;5096417;28;20119;-63
2022/03/15 08:01:57;;;;;;;37.50;18.67;;;;;;;;;;5081533;28;20169;-62
2022/03/15 08:04:23;;;;;;;36.67;16.63;;;;;;;;;;5074698;28;20048;-62
2022/03/15 08:06:49;;;;;;;38.63;17.40;;;;;;;;;;5073940;28;20127;-62
2022/03/15 08:09:15;;;;;;;32.50;17.75;;;;;;;;;;5090995;28;20036;-63
2022/03/15 08:11:42;;;;;;;35.35;17.58;;;;;;;;;;5093821;28;20462;-63
2022/03/15 08:14:09;;;;;;;40.45;18.52;;;;;;;;;;5091597;28;20135;-62
2022/03/15 08:16:36;;;;;;;39.33;17.40;;;;;;;;;;5074724;28;20468;-63
2022/03/15 08:19:02;;;;;;;31.73;15.98;;;;;;;;;;5074386;28;20045;-62
2022/03/15 08:21:28;;;;;;;38.45;18.30;;;;;;;;;;5075256;28;20045;-63
2022/03/15 08:23:54;;;;;;;35.53;17.35;;;;;;;;;;5094172;28;20039;-63
2022/03/15 08:26:21;;;;;;;34.67;16.95;;;;;;;;;;5093707;28;20076;-63
2022/03/15 08:28:48;;;;;;;32.65;17.10;;;;;;;;;;5069254;28;20522;-63
2022/03/15 08:31:14;;;;;;;34.47;16.40;;;;;;;;;;5074541;28;20040;-63
2022/03/15 08:33:41;;;;;;;34.55;16.48;;;;;;;;;;5074580;28;20441;-63
2022/03/15 08:36:07;;;;;;;37.80;16.95;;;;;;;;;;5081237;28;20077;-63
2022/03/15 08:38:34;;;;;;;36.83;15.82;;;;;;;;;;5076058;28;20097;-63
2022/03/15 08:41:01;;;;;;;40.95;17.27;;;;;;;;;;5074449;28;20048;-63
2022/03/15 08:43:27;;;;;;;40.38;18.67;;;;;;;;;;5077051;28;20045;-63
2022/03/15 08:45:53;;;;;;;34.33;18.48;;;;;;;;;;5074376;28;20444;-63
2022/03/15 08:48:20;;;;;;;38.78;20.23;;;;;;;;;;5085812;28;20502;-63
2022/03/15 08:50:46;;;;;;;33.83;18.83;;;;;;;;;;5073855;28;20044;-65
2022/03/15 08:53:13;;;;;;;42.67;20.92;;;;;;;;;;5074202;28;20043;-62
2022/03/15 08:55:39;;;;;;;43.17;21.33;;;;;;;;;;5093736;28;20056;-62
2022/03/15 08:58:05;;;;;;;40.15;20.77;;;;;;;;;;5062516;28;20044;-62
2022/03/15 09:00:32;;;;;;;47.78;21.38;;;;;;;;;;5074032;28;20037;-62
2022/03/15 09:02:58;;;;;;;42.35;20.70;;;;;;;;;;5098594;28;20390;-62
2022/03/15 09:05:26;;;;;;;45.83;21.48;;;;;;;;;;5092128;28;20537;-62
2022/03/15 09:07:52;;;;;;;39.35;21.60;;;;;;;;;;5092625;28;20050;-62
2022/03/15 09:10:19;;;;;;;47.28;22.73;;;;;;;;;;5076669;28;20060;-62
2022/03/15 09:12:45;;;;;;;43.22;22.80;;;;;;;;;;5061299;28;20040;-62
2022/03/15 09:15:12;;;;;;;40.75;23.98;;;;;;;;;;5081973;28;20090;-62
2022/03/15 09:17:38;;;;;;;42.25;24.83;;;;;;;;;;5073297;28;20062;-62
2022/03/15 09:20:05;;;;;;;46.08;24.58;;;;;;;;;;5092264;28;20043;-62
2022/03/15 09:22:31;;;;;;;42.25;23.95;;;;;;;;;;5087041;28;20045;-62
2022/03/15 09:24:57;;;;;;;45.17;25.70;;;;;;;;;;5072903;28;20048;-61
2022/03/15 09:27:23;;;;;;;46.67;26.60;;;;;;;;;;5073534;28;20085;-62
2022/03/15 09:29:50;;;;;;;48.97;26.90;;;;;;;;;;5083193;28;20048;-62
2022/03/15 09:32:16;;;;;;;49.53;28.83;;;;;;;;;;5091050;28;20149;-62
2022/03/15 09:34:43;;;;;;;46.90;28.65;;;;;;;;;;5091889;28;20044;-62
2022/03/15 09:37:10;;;;;;;50.70;28.02;;;;;;;;;;5089391;28;20089;-62
2022/03/15 09:39:36;;;;;;;50.55;27.33;;;;;;;;;;5073412;28;20075;-62
2022/03/15 09:42:06;;;;;;;50.67;27.13;;;;;;;;;;5090211;28;20405;-62
2022/03/15 09:44:34;;;;;;;51.13;27.75;;;;;;;;;;5101446;28;20055;-62
2022/03/15 09:47:02;;;;;;;47.95;29.08;;;;;;;;;;5073257;28;20044;-62
2022/03/15 09:49:29;;;;;;;51.20;27.48;;;;;;;;;;5085647;28;20066;-62
2022/03/15 09:51:55;;;;;;;49.08;27.23;;;;;;;;;;5083617;28;20056;-62
2022/03/15 09:54:22;;;;;;;44.45;27.48;;;;;;;;;;5072836;28;20048;-62
2022/03/15 09:56:49;;;;;;;44.95;25.48;;;;;;;;;;5084857;28;20086;-62
2022/03/15 09:59:17;;;;;;;42.72;25.70;;;;;;;;;;5087021;28;20046;-62
2022/03/15 10:01:44;;;;;;;45.42;25.58;;;;;;;;;;5073067;28;20101;-62
2022/03/15 10:04:10;;;;;;;37.97;24.17;;;;;;;;;;5105807;28;20051;-61
2022/03/15 10:06:37;;;;;;;41.45;24.50;;;;;;;;;;5090631;28;20495;-62
2022/03/15 10:09:05;;;;;;;41.53;24.83;;;;;;;;;;5087583;28;20041;-62
2022/03/15 10:11:31;;;;;;;36.67;23.42;;;;;;;;;;5072571;28;20040;-62
2022/03/15 10:13:58;;;;;;;43.90;25.48;;;;;;;;;;5072041;28;20432;-62
2022/03/15 10:16:40;;;;;;;41.67;24.08;;;;;;;;;;5081475;28;20039;-62
2022/03/15 10:19:07;;;;;;;38.95;23.70;;;;;;;;;;5090982;28;20130;-62
2022/03/15 10:21:44;;;;;;;39.35;23.88;;;;;;;;;;5072198;28;20467;-62
2022/03/15 10:24:10;;;;;;;38.88;23.13;;;;;;;;;;5073447;28;20250;-62
2022/03/15 10:26:38;;;;;;;39.65;23.55;;;;;;;;;;5072318;28;20544;-62
2022/03/15 10:29:04;;;;;;;35.22;22.67;;;;;;;;;;5074752;28;20475;-62
2022/03/15 10:31:31;;;;;;;43.80;23.95;;;;;;;;;;5072882;28;20055;-62
2022/03/15 10:34:00;;;;;;;38.10;23.73;;;;;;;;;;5071847;28;20047;-62
2022/03/15 10:36:27;;;;;;;36.92;21.90;;;;;;;;;;5082542;28;20039;-62
2022/03/15 10:38:53;;;;;;;36.75;22.13;;;;;;;;;;5072133;28;20106;-62
2022/03/15 10:41:20;;;;;;;40.22;21.70;;;;;;;;;;5071483;28;20048;-62
2022/03/15 10:43:51;;;;;;;36.38;20.85;;;;;;;;;;5083480;28;20032;-62
2022/03/15 10:46:22;;;;;;;34.10;22.42;;;;;;;;;;5077843;28;20123;-62
2022/03/15 10:48:53;;;;;;;34.10;21.73;;;;;;;;;;5087706;28;20479;-62
2022/03/15 10:51:19;;;;;;;29.35;20.10;;;;;;;;;;5090679;28;20473;-62
2022/03/15 10:53:46;;;;;;;32.05;20.55;;;;;;;;;;5053721;28;20044;-63
2022/03/15 10:56:15;;;;;;;35.85;20.42;;;;;;;;;;5086885;28;20045;-62
2022/03/15 10:58:48;;;;;;;33.25;22.02;;;;;;;;;;5092402;28;20052;-62
2022/03/15 11:01:17;;;;;;;36.97;20.02;;;;;;;;;;5090876;28;20040;-63
2022/03/15 11:03:53;;;;;;;33.25;19.67;;;;;;;;;;5071505;28;20083;-63
2022/03/15 11:06:30;;;;;;;29.05;19.67;;;;;;;;;;5060164;28;20048;-63
2022/03/15 11:08:57;;;;;;;33.53;20.88;;;;;;;;;;5071882;28;20051;-63
2022/03/15 11:11:26;;;;;;;35.80;20.85;;;;;;;;;;5053075;28;20076;-63
2022/03/15 11:14:06;;;;;;;37.28;20.23;;;;;;;;;;5072564;28;20048;-63
2022/03/15 11:16:36;;;;;;;31.98;19.33;;;;;;;;;;5090219;28;20611;-62
2022/03/15 11:19:03;;;;;;;30.33;18.02;;;;;;;;;;5078763;28;20051;-63
2022/03/15 11:21:33;;;;;;;33.22;19.30;;;;;;;;;;5090633;28;20372;-62
2022/03/15 11:24:00;;;;;;;28.77;18.65;;;;;;;;;;5076378;28;20086;-63
2022/03/15 11:26:28;;;;;;;32.72;17.52;;;;;;;;;;5083743;28;20043;-63
2022/03/15 11:28:55;;;;;;;29.50;17.35;;;;;;;;;;5090315;28;20565;-62
2022/03/15 11:31:22;;;;;;;28.77;15.50;;;;;;;;;;5070989;28;20048;-62
2022/03/15 11:33:48;;;;;;;30.88;16.08;;;;;;;;;;5089836;28;20487;-62
2022/03/15 11:36:15;;;;;;;25.88;16.70;;;;;;;;;;5094576;28;20036;-62
2022/03/15 11:38:42;;;;;;;30.02;18.98;;;;;;;;;;5089990;28;20043;-62
2022/03/15 11:41:10;;;;;;;34.63;19.10;;;;;;;;;;5094245;28;20118;-62
2022/03/15 11:44:00;;;;;;;31.83;19.67;;;;;;;;;;5075911;28;20067;-62
2022/03/15 11:46:34;;;;;;;34.83;20.83;;;;;;;;;;5063710;28;20048;-62
2022/03/15 11:49:00;;;;;;;;;;;;;;;;;;5057649;28;20151;-62
2022/03/15 11:51:33;;;;;;;34.80;20.95;;;;;;;;;;5075180;28;19928;-62
2022/03/15 11:54:06;;;;;;;37.10;21.17;;;;;;;;;;5075314;28;20094;-62
2022/03/15 11:56:44;;;;;;;34.35;18.38;;;;;;;;;;5086676;28;20062;-62
2022/03/15 11:59:10;;;;;;;37.22;20.35;;;;;;;;;;5101181;28;20146;-62
2022/03/15 12:01:44;;;;;;;30.55;18.67;;;;;;;;;;5071285;28;20047;-61
2022/03/15 12:04:11;;;;;;;26.73;18.25;;;;;;;;;;5102476;28;20051;-62
2022/03/15 12:06:37;;;;;;;27.95;17.58;;;;;;;;;;5074049;28;20432;-62
2022/03/15 12:09:13;;;;;;;27.98;17.15;;;;;;;;;;5074981;28;20063;-62
2022/03/15 12:11:40;;;;;;;29.17;16.33;;;;;;;;;;5090328;28;20040;-62
2022/03/15 12:14:17;;;;;;;25.88;16.15;;;;;;;;;;5092660;28;20447;-62
2022/03/15 12:16:47;;;;;;;24.33;14.40;;;;;;;;;;5088911;28;20056;-62
2022/03/15 12:19:35;;;;;;;24.80;15.60;;;;;;;;;;5074670;28;20074;-62
2022/03/15 12:22:03;;;;;;;23.80;14.00;;;;;;;;;;5073304;28;20091;-62
2022/03/15 12:24:31;;;;;;;23.38;14.05;;;;;;;;;;5082537;28;20052;-62
2022/03/15 12:27:00;;;;;;;19.83;12.60;;;;;;;;;;5055690;28;20048;-62
2022/03/15 12:29:27;;;;;;;24.35;14.18;;;;;;;;;;5074709;28;20033;-62
2022/03/15 12:31:54;;;;;;;19.65;11.68;;;;;;;;;;5108095;28;20508;-62
2022/03/15 12:34:20;;;;;;;18.55;12.77;;;;;;;;;;5092581;28;20047;-62
2022/03/15 12:36:47;;;;;;;25.52;13.48;;;;;;;;;;5071579;28;20090;-62
2022/03/15 12:39:15;;;;;;;21.50;12.98;;;;;;;;;;5074384;28;20051;-62
2022/03/15 12:41:41;;;;;;;20.02;11.57;;;;;;;;;;5084982;28;20127;-62
2022/03/15 12:44:08;;;;;;;22.08;10.77;;;;;;;;;;5074364;28;20044;-62
2022/03/15 12:46:38;;;;;;;20.98;11.63;;;;;;;;;;5077487;28;20071;-62
2022/03/15 12:49:05;;;;;;;19.35;11.50;;;;;;;;;;5058510;28;20045;-62
2022/03/15 12:51:43;;;;;;;19.55;9.85;;;;;;;;;;5074158;28;20043;-62
2022/03/15 12:54:11;;;;;;;17.35;9.38;;;;;;;;;;5078083;28;20150;-62
2022/03/15 12:56:42;;;;;;;15.80;9.45;;;;;;;;;;5073372;28;20060;-62
2022/03/15 12:59:08;;;;;;;16.00;7.32;;;;;;;;;;5089152;28;20479;-62
2022/03/15 13:01:37;;;;;;;14.65;8.20;;;;;;;;;;5089947;28;20048;-62
2022/03/15 13:04:04;;;;;;;18.48;9.32;;;;;;;;;;5074607;28;20040;-62
2022/03/15 13:06:30;;;;;;;15.35;7.60;;;;;;;;;;5076360;28;20041;-62
2022/03/15 13:08:59;;;;;;;16.20;6.90;;;;;;;;;;5073419;28;20188;-62
2022/03/15 13:11:26;;;;;;;13.48;6.35;;;;;;;;;;5092283;28;20115;-62
2022/03/15 13:13:54;;;;;;;15.75;6.40;;;;;;;;;;5066268;28;20045;-62
2022/03/15 13:16:23;;;;;;;15.18;7.47;;;;;;;;;;5076480;28;20787;-62
2022/03/15 13:18:49;;;;;;;11.00;6.20;;;;;;;;;;5073504;28;20045;-62
2022/03/15 13:21:15;;;;;;;10.15;5.40;;;;;;;;;;5092488;28;20052;-62
2022/03/15 13:23:48;;;;;;;13.38;7.28;;;;;;;;;;5085395;28;20399;-62
2022/03/15 13:26:16;;;;;;;8.57;4.32;;;;;;;;;;5074304;28;20044;-62
2022/03/15 13:28:46;;;;;;;8.38;3.80;;;;;;;;;;5073259;28;20135;-62
2022/03/15 13:31:13;;;;;;;9.45;3.40;;;;;;;;;;5054326;28;20083;-62
2022/03/15 13:33:41;;;;;;;10.82;4.18;;;;;;;;;;5078370;28;20055;-62
2022/03/15 13:36:14;;;;;;;11.82;4.80;;;;;;;;;;5091848;28;20040;-62
2022/03/15 13:38:47;;;;;;;10.82;4.13;;;;;;;;;;5089959;28;20040;-63
2022/03/15 13:41:15;;;;;;;8.75;3.33;;;;;;;;;;5059481;28;20414;-62
2022/03/15 13:43:43;;;;;;;8.77;3.03;;;;;;;;;;5074185;28;20113;-62
2022/03/15 13:46:10;;;;;;;7.85;2.80;;;;;;;;;;5072451;28;20440;-62
2022/03/15 13:48:42;;;;;;;10.75;3.85;;;;;;;;;;5073064;28;20047;-62
2022/03/15 13:51:12;;;;;;;6.60;3.15;;;;;;;;;;5061768;28;20105;-62
2022/03/15 13:53:40;;;;;;;8.27;2.92;;;;;;;;;;5073966;28;20052;-62
2022/03/15 13:56:20;;;;;;;6.55;3.13;;;;;;;;;;5091634;28;20400;-62
2022/03/15 13:59:04;;;;;;;9.07;3.67;;;;;;;;;;5058075;28;20435;-62
2022/03/15 14:01:33;;;;;;;9.65;3.53;;;;;;;;;;5089443;28;20040;-62
2022/03/15 14:04:03;;;;;;;9.57;3.60;;;;;;;;;;5070074;28;20143;-64
2022/03/15 14:06:35;;;;;;;12.10;4.43;;;;;;;;;;5071915;28;20036;-63
2022/03/15 14:09:04;;;;;;;6.78;3.58;;;;;;;;;;5091584;28;20048;-63
2022/03/15 14:11:35;;;;;;;11.73;5.55;;;;;;;;;;5081802;28;20040;-63
2022/03/15 14:14:06;;;;;;;11.02;4.45;;;;;;;;;;5055938;28;20154;-63
2022/03/15 14:16:35;;;;;;;9.98;4.85;;;;;;;;;;5085324;28;20490;-63
2022/03/15 14:19:04;;;;;;;10.32;4.07;;;;;;;;;;5074081;28;20563;-63
2022/03/15 14:21:30;;;;;;;5.68;2.85;;;;;;;;;;5072292;28;20087;-63